createdAt,value
2018-01-13T00:00:53.164Z,42.13
2018-01-13T00:03:20.773Z,46.13
2018-01-13T00:05:48.268Z,46.37
2018-01-13T00:08:15.787Z,48.17
2018-01-13T00:10:43.258Z,43.80
2018-01-13T00:13:10.761Z,47.50
2018-01-13T00:15:38.254Z,45.43
2018-01-13T00:18:06.880Z,45.97
2018-01-13T00:20:34.380Z,43.67
2018-01-13T00:23:02.225Z,44.40
2018-01-13T00:25:29.750Z,52.07
2018-01-13T00:27:57.518Z,52.23
2018-01-13T00:30:25.187Z,48.70
2018-01-13T00:32:53.391Z,47.90
2018-01-13T00:35:21.380Z,53.27
2018-01-13T00:37:48.877Z,56.77
2018-01-13T00:40:16.398Z,49.17
2018-01-13T00:42:43.885Z,46.70
2018-01-13T00:45:11.418Z,52.10
2018-01-13T00:47:38.963Z,52.77
2018-01-13T00:50:06.467Z,50.37
2018-01-13T00:52:33.968Z,55.50
2018-01-13T00:55:01.449Z,50.03
2018-01-13T00:57:28.943Z,51.80
2018-01-13T00:59:56.435Z,55.13
2018-01-13T01:02:24.103Z,54.43
2018-01-13T01:04:51.750Z,54.27
2018-01-13T01:07:19.443Z,53.10
2018-01-13T01:09:46.982Z,46.77
2018-01-13T01:12:14.466Z,45.70
2018-01-13T01:14:41.944Z,48.40
2018-01-13T01:17:09.439Z,52.13
2018-01-13T01:19:36.954Z,48.63
2018-01-13T01:22:04.427Z,54.90
2018-01-13T01:24:31.952Z,50.13
2018-01-13T01:26:59.448Z,53.60
2018-01-13T01:29:26.995Z,55.77
2018-01-13T01:32:08.669Z,55.97
2018-01-13T01:34:36.166Z,54.77
2018-01-13T01:37:03.747Z,55.43
2018-01-13T01:39:31.286Z,52.73
2018-01-13T01:41:58.855Z,54.63
2018-01-13T01:44:26.400Z,56.27
2018-01-13T01:46:53.913Z,63.17
2018-01-13T01:49:21.488Z,67.93
2018-01-13T01:51:48.996Z,71.50
2018-01-13T01:54:17.288Z,67.43
2018-01-13T01:56:44.775Z,70.93
2018-01-13T01:59:12.258Z,64.43
2018-01-13T02:01:39.780Z,67.60
2018-01-13T02:04:07.267Z,67.13
2018-01-13T02:06:34.756Z,64.67
2018-01-13T02:09:03.232Z,63.97
2018-01-13T02:11:30.699Z,65.63
2018-01-13T02:13:58.302Z,61.50
2018-01-13T02:16:25.848Z,70.63
2018-01-13T02:18:53.419Z,69.70
2018-01-13T02:21:20.918Z,66.17
2018-01-13T02:23:49.100Z,71.07
2018-01-13T02:26:16.601Z,73.13
2018-01-13T02:28:44.089Z,67.83
2018-01-13T02:31:12.867Z,66.93
2018-01-13T02:33:40.427Z,75.30
2018-01-13T02:36:08.019Z,68.93
2018-01-13T02:38:35.497Z,73.80
2018-01-13T02:41:03.049Z,63.27
2018-01-13T02:43:35.672Z,67.90
2018-01-13T02:46:03.226Z,64.93
2018-01-13T02:48:30.714Z,66.37
2018-01-13T02:50:58.245Z,66.87
2018-01-13T02:53:30.797Z,72.07
2018-01-13T02:55:58.284Z,81.10
2018-01-13T02:58:25.863Z,75.33
2018-01-13T03:00:53.379Z,74.80
2018-01-13T03:03:20.875Z,72.87
2018-01-13T03:05:48.703Z,69.87
2018-01-13T03:08:17.465Z,69.30
2018-01-13T03:10:44.926Z,72.67
2018-01-13T03:13:12.458Z,67.77
2018-01-13T03:15:40.053Z,64.90
2018-01-13T03:18:07.896Z,66.90
2018-01-13T03:20:36.275Z,67.90
2018-01-13T03:23:08.719Z,67.67
2018-01-13T03:25:36.275Z,69.63
2018-01-13T03:28:03.734Z,69.87
2018-01-13T03:30:31.203Z,60.70
2018-01-13T03:32:58.805Z,71.27
2018-01-13T03:35:26.555Z,68.90
2018-01-13T03:37:54.025Z,72.60
2018-01-13T03:40:21.563Z,65.50
2018-01-13T03:42:49.064Z,70.37
2018-01-13T03:45:16.591Z,67.83
2018-01-13T03:47:44.195Z,68.13
2018-01-13T03:50:11.755Z,66.60
2018-01-13T03:52:39.253Z,58.50
2018-01-13T03:55:07.013Z,61.10
2018-01-13T03:57:34.542Z,65.00
2018-01-13T04:00:02.827Z,72.93
2018-01-13T04:02:30.341Z,70.73
2018-01-13T04:04:57.843Z,65.87
2018-01-13T04:07:25.318Z,68.00
2018-01-13T04:09:52.800Z,68.90
2018-01-13T04:12:20.314Z,67.90
2018-01-13T04:14:47.791Z,70.77
2018-01-13T04:17:15.285Z,63.83
2018-01-13T04:19:42.862Z,68.97
2018-01-13T04:22:10.628Z,60.20
2018-01-13T04:24:38.133Z,63.03
2018-01-13T04:27:06.183Z,66.57
2018-01-13T04:29:33.676Z,71.40
2018-01-13T04:32:01.200Z,69.60
2018-01-13T04:34:28.684Z,70.63
2018-01-13T04:36:56.175Z,66.63
2018-01-13T04:39:23.673Z,62.20
2018-01-13T04:41:51.169Z,66.10
2018-01-13T04:44:18.709Z,75.37
2018-01-13T04:46:46.254Z,70.20
2018-01-13T04:49:13.786Z,70.40
2018-01-13T04:51:41.278Z,64.13
2018-01-13T04:54:08.756Z,69.07
2018-01-13T04:56:36.232Z,69.57
2018-01-13T04:59:03.771Z,74.20
2018-01-13T05:01:31.276Z,76.37
2018-01-13T05:03:58.751Z,76.40
2018-01-13T05:06:26.335Z,70.23
2018-01-13T05:08:53.861Z,80.33
2018-01-13T05:11:21.386Z,77.70
2018-01-13T05:13:48.928Z,81.27
2018-01-13T05:16:16.386Z,85.23
2018-01-13T05:18:43.845Z,84.60
2018-01-13T05:21:11.420Z,76.77
2018-01-13T05:26:31.954Z,83.90
2018-01-13T05:28:59.594Z,76.23
2018-01-13T05:31:27.157Z,77.53
2018-01-13T05:33:54.855Z,78.27
2018-01-13T05:36:23.304Z,80.63
2018-01-13T05:38:51.036Z,78.60
2018-01-13T05:41:18.539Z,78.97
2018-01-13T05:43:46.442Z,77.93
2018-01-13T05:46:13.961Z,80.83
2018-01-13T05:48:42.270Z,78.60
2018-01-13T05:51:10.701Z,75.17
2018-01-13T05:53:47.883Z,80.20
2018-01-13T05:56:15.369Z,78.03
2018-01-13T05:58:42.899Z,82.87
2018-01-13T06:01:10.430Z,78.57
2018-01-13T06:03:37.917Z,82.80
2018-01-13T06:06:06.399Z,78.73
2018-01-13T06:08:33.932Z,75.80
2018-01-13T06:11:01.442Z,71.53
2018-01-13T06:13:38.640Z,75.13
2018-01-13T06:16:06.300Z,75.80
2018-01-13T06:18:33.765Z,70.93
2018-01-13T06:21:01.269Z,73.50
2018-01-13T06:23:28.866Z,74.63
2018-01-13T06:25:56.339Z,72.77
2018-01-13T06:28:23.810Z,76.27
2018-01-13T06:30:51.352Z,73.40
2018-01-13T06:33:19.624Z,88.93
2018-01-13T06:35:47.161Z,78.27
2018-01-13T06:38:14.647Z,79.70
2018-01-13T06:40:42.419Z,78.27
2018-01-13T06:43:10.628Z,71.63
2018-01-13T06:45:39.221Z,70.10
2018-01-13T06:48:07.998Z,79.37
2018-01-13T06:50:35.486Z,76.40
2018-01-13T06:53:02.953Z,79.27
2018-01-13T06:55:30.531Z,75.50
2018-01-13T06:57:58.530Z,72.50
2018-01-13T07:00:26.025Z,72.37
2018-01-13T07:02:53.494Z,76.17
2018-01-13T07:05:20.966Z,73.87
2018-01-13T07:07:48.492Z,71.07
2018-01-13T07:10:16.160Z,74.73
2018-01-13T07:12:43.701Z,81.47
2018-01-13T07:15:11.175Z,77.50
2018-01-13T07:17:39.285Z,81.07
2018-01-13T07:20:06.796Z,75.30
2018-01-13T07:22:34.409Z,82.30
2018-01-13T07:25:01.903Z,80.43
2018-01-13T07:27:29.415Z,73.40
2018-01-13T07:29:56.918Z,74.23
2018-01-13T07:32:24.456Z,76.03
2018-01-13T07:34:51.941Z,73.23
2018-01-13T07:37:20.446Z,78.37
2018-01-13T07:39:48.055Z,70.67
2018-01-13T07:42:15.519Z,74.20
2018-01-13T07:44:43.012Z,76.03
2018-01-13T07:47:10.547Z,75.97
2018-01-13T07:49:38.154Z,80.47
2018-01-13T07:52:05.702Z,82.37
2018-01-13T07:54:33.252Z,76.17
2018-01-13T07:57:00.786Z,75.30
2018-01-13T07:59:28.339Z,65.53
2018-01-13T08:01:55.976Z,70.03
2018-01-13T08:04:23.539Z,67.27
2018-01-13T08:06:51.109Z,61.97
2018-01-13T08:09:18.678Z,62.83
2018-01-13T08:11:46.182Z,58.17
2018-01-13T08:14:13.669Z,53.60
2018-01-13T08:16:41.155Z,53.33
2018-01-13T08:19:08.683Z,49.03
2018-01-13T08:21:36.214Z,57.87
2018-01-13T08:24:03.766Z,53.47
2018-01-13T08:26:31.256Z,51.37
2018-01-13T08:28:58.796Z,48.97
2018-01-13T08:31:26.357Z,46.00
2018-01-13T08:33:54.897Z,47.47
2018-01-13T08:36:22.455Z,41.20
2018-01-13T08:38:50.562Z,42.80
2018-01-13T08:41:18.048Z,41.07
2018-01-13T08:43:45.886Z,37.87
2018-01-13T08:46:13.590Z,39.57
2018-01-13T08:48:41.177Z,37.63
2018-01-13T08:51:08.767Z,34.57
2018-01-13T08:53:36.471Z,40.27
2018-01-13T08:56:03.935Z,39.37
2018-01-13T08:58:31.411Z,37.30
2018-01-13T09:00:59.165Z,34.47
2018-01-13T09:03:26.955Z,38.07
2018-01-13T09:05:54.703Z,36.90
2018-01-13T09:08:22.453Z,32.47
2018-01-13T09:10:49.940Z,36.23
2018-01-13T09:13:17.546Z,34.07
2018-01-13T09:15:45.067Z,36.37
2018-01-13T09:18:12.602Z,36.40
2018-01-13T09:20:40.206Z,35.70
2018-01-13T09:23:07.790Z,31.67
2018-01-13T09:25:35.290Z,29.77
2018-01-13T09:28:02.846Z,35.23
2018-01-13T09:30:31.245Z,30.17
2018-01-13T09:32:58.887Z,28.90
2018-01-13T09:35:26.445Z,32.43
2018-01-13T09:37:54.027Z,31.80
2018-01-13T09:40:22.364Z,31.30
2018-01-13T09:42:49.833Z,29.87
2018-01-13T09:45:17.744Z,31.97
2018-01-13T09:47:45.238Z,29.07
2018-01-13T09:50:12.828Z,28.17
2018-01-13T09:52:40.361Z,26.17
2018-01-13T09:55:07.872Z,26.70
2018-01-13T09:57:35.728Z,27.40
2018-01-13T10:00:03.216Z,26.90
2018-01-13T10:02:35.722Z,29.07
2018-01-13T10:05:04.397Z,24.13
2018-01-13T10:07:31.914Z,26.67
2018-01-13T10:10:01.161Z,25.23
2018-01-13T10:12:28.780Z,25.13
2018-01-13T10:14:56.406Z,27.27
2018-01-13T10:17:23.984Z,24.00
2018-01-13T10:19:52.243Z,22.80
2018-01-13T10:22:19.731Z,24.10
2018-01-13T10:24:47.284Z,22.60
2018-01-13T10:27:15.129Z,24.13
2018-01-13T10:29:42.844Z,23.03
2018-01-13T10:32:10.354Z,21.17
2018-01-13T10:34:37.868Z,21.83
2018-01-13T10:37:05.370Z,22.73
2018-01-13T10:39:32.929Z,24.70
2018-01-13T10:42:01.736Z,23.47
2018-01-13T10:44:29.296Z,21.30
2018-01-13T10:46:56.904Z,25.00
2018-01-13T10:49:24.503Z,22.73
2018-01-13T10:51:52.046Z,21.97
2018-01-13T10:54:19.538Z,22.67
2018-01-13T10:56:47.032Z,23.27
2018-01-13T10:59:14.530Z,20.83
2018-01-13T11:01:42.185Z,20.17
2018-01-13T11:04:09.662Z,23.10
2018-01-13T11:06:38.179Z,22.47
2018-01-13T11:09:06.742Z,23.03
2018-01-13T11:11:34.221Z,20.83
2018-01-13T11:14:01.969Z,25.23
2018-01-13T11:16:29.469Z,24.00
2018-01-13T11:18:57.143Z,20.80
2018-01-13T11:21:24.805Z,25.10
2018-01-13T11:23:52.343Z,23.27
2018-01-13T11:26:19.914Z,23.90
2018-01-13T11:28:47.474Z,20.83
2018-01-13T11:31:15.027Z,22.00
2018-01-13T11:33:42.585Z,22.37
2018-01-13T11:36:10.142Z,24.17
2018-01-13T11:38:37.667Z,23.53
2018-01-13T11:41:05.187Z,24.90
2018-01-13T11:43:32.803Z,24.33
2018-01-13T11:46:01.497Z,24.67
2018-01-13T11:48:29.243Z,24.27
2018-01-13T11:50:56.803Z,20.63
2018-01-13T11:53:24.950Z,23.50
2018-01-13T11:55:52.546Z,22.80
2018-01-13T11:58:20.041Z,23.93
2018-01-13T12:00:47.622Z,23.37
2018-01-13T12:03:15.250Z,22.77
2018-01-13T12:05:42.812Z,22.80
2018-01-13T12:08:10.372Z,23.17
2018-01-13T12:10:37.945Z,25.83
2018-01-13T12:13:05.505Z,22.03
2018-01-13T12:15:33.280Z,25.93
2018-01-13T12:18:00.816Z,24.53
2018-01-13T12:20:28.380Z,27.07
2018-01-13T12:22:56.079Z,21.30
2018-01-13T12:25:23.705Z,28.40
2018-01-13T12:27:51.528Z,24.00
2018-01-13T12:30:19.049Z,23.10
2018-01-13T12:32:46.534Z,26.30
2018-01-13T12:35:14.074Z,24.47
2018-01-13T12:37:41.737Z,22.90
2018-01-13T12:40:09.797Z,26.57
2018-01-13T12:42:37.674Z,22.00
2018-01-13T12:45:05.212Z,23.93
2018-01-13T12:47:32.714Z,23.73
2018-01-13T12:50:00.217Z,23.03
2018-01-13T12:52:27.835Z,28.50
2018-01-13T12:54:55.449Z,24.93
2018-01-13T12:57:23.016Z,24.20
2018-01-13T12:59:50.561Z,21.47
2018-01-13T13:02:18.181Z,22.87
2018-01-13T13:04:45.671Z,23.87
2018-01-13T13:07:13.295Z,25.63
2018-01-13T13:09:40.769Z,24.60
2018-01-13T13:12:08.415Z,23.43
2018-01-13T13:14:36.023Z,22.90
2018-01-13T13:17:03.545Z,26.13
2018-01-13T13:19:31.081Z,24.27
2018-01-13T13:21:58.576Z,23.47
2018-01-13T13:24:26.039Z,23.70
2018-01-13T13:26:53.554Z,26.13
2018-01-13T13:29:21.162Z,27.27
2018-01-13T13:31:48.659Z,24.20
2018-01-13T13:34:16.387Z,24.40
2018-01-13T13:36:43.990Z,23.77
2018-01-13T13:39:11.531Z,23.07
2018-01-13T13:41:40.018Z,25.17
2018-01-13T13:44:18.191Z,24.93
2018-01-13T13:46:45.708Z,25.13
2018-01-13T13:49:13.257Z,23.57
2018-01-13T13:51:40.767Z,24.93
2018-01-13T13:54:22.532Z,22.80
2018-01-13T13:56:50.078Z,22.87
2018-01-13T13:59:17.745Z,23.13
2018-01-13T14:01:45.362Z,22.80
2018-01-13T14:04:12.920Z,25.03
2018-01-13T14:06:40.453Z,23.67
2018-01-13T14:09:08.790Z,25.47
2018-01-13T14:11:36.814Z,26.57
2018-01-13T14:14:04.470Z,24.83
2018-01-13T14:16:32.071Z,26.03
2018-01-13T14:18:59.632Z,22.83
2018-01-13T14:21:27.165Z,25.33
2018-01-13T14:23:54.679Z,23.20
2018-01-13T14:26:22.301Z,23.33
2018-01-13T14:28:50.085Z,23.73
2018-01-13T14:31:17.701Z,23.27
2018-01-13T14:33:45.241Z,24.33
2018-01-13T14:36:12.769Z,26.67
2018-01-13T14:38:40.264Z,23.43
2018-01-13T14:41:07.937Z,24.97
2018-01-13T14:43:35.425Z,25.40
2018-01-13T14:46:03.378Z,26.53
2018-01-13T14:48:30.905Z,23.30
2018-01-13T14:50:58.434Z,24.23
2018-01-13T14:53:26.137Z,23.00
2018-01-13T14:55:53.673Z,25.13
2018-01-13T14:58:21.349Z,22.43
2018-01-13T15:00:48.844Z,29.50
2018-01-13T15:03:16.386Z,25.33
2018-01-13T15:05:43.925Z,25.00
2018-01-13T15:08:11.487Z,24.73
2018-01-13T15:10:39.150Z,26.07
2018-01-13T15:13:06.623Z,21.83
2018-01-13T15:15:34.216Z,22.50
2018-01-13T15:18:01.793Z,25.43
2018-01-13T15:20:29.334Z,24.87
2018-01-13T15:22:56.878Z,25.03
2018-01-13T15:25:24.533Z,23.47
2018-01-13T15:27:52.116Z,25.67
2018-01-13T15:30:19.651Z,23.50
2018-01-13T15:32:48.316Z,23.67
2018-01-13T15:35:15.848Z,24.07
2018-01-13T15:37:43.291Z,24.67
2018-01-13T15:40:10.853Z,23.50
2018-01-13T15:42:38.566Z,26.40
2018-01-13T15:45:06.617Z,25.03
2018-01-13T15:47:35.035Z,22.90
2018-01-13T15:50:02.561Z,23.77
2018-01-13T15:52:30.031Z,20.23
2018-01-13T15:54:57.592Z,24.37
2018-01-13T15:57:25.288Z,24.37
2018-01-13T15:59:52.836Z,22.67
2018-01-13T16:02:20.441Z,21.77
2018-01-13T16:04:48.078Z,23.87
2018-01-13T16:07:15.612Z,28.60
2018-01-13T16:09:43.226Z,21.07
2018-01-13T16:12:10.771Z,24.43
2018-01-13T16:14:38.325Z,22.90
2018-01-13T16:17:06.076Z,22.27
2018-01-13T16:19:33.811Z,23.27
2018-01-13T16:22:01.279Z,24.30
2018-01-13T16:24:28.811Z,21.60
2018-01-13T16:26:56.678Z,24.27
2018-01-13T16:29:24.430Z,24.50
2018-01-13T16:31:51.970Z,23.07
2018-01-13T16:34:19.510Z,23.40
2018-01-13T16:36:46.989Z,24.20
2018-01-13T16:39:14.536Z,23.97
2018-01-13T16:41:42.096Z,25.83
2018-01-13T16:44:09.590Z,23.07
2018-01-13T16:46:37.165Z,24.70
2018-01-13T16:49:04.914Z,24.87
2018-01-13T16:51:32.413Z,22.00
2018-01-13T16:53:59.996Z,29.00
2018-01-13T16:56:27.773Z,22.57
2018-01-13T16:58:55.260Z,23.53
2018-01-13T17:01:22.835Z,22.33
2018-01-13T17:03:50.341Z,25.67
2018-01-13T17:06:17.888Z,20.80
2018-01-13T17:08:45.465Z,19.87
2018-01-13T17:11:12.955Z,23.17
2018-01-13T17:13:40.505Z,23.20
2018-01-13T17:16:08.066Z,23.00
2018-01-13T17:18:35.550Z,21.27
2018-01-13T17:21:03.222Z,20.47
2018-01-13T17:23:30.763Z,22.60
2018-01-13T17:25:58.311Z,23.30
2018-01-13T17:28:25.953Z,22.50
2018-01-13T17:30:53.537Z,23.80
2018-01-13T17:33:30.696Z,24.87
2018-01-13T17:35:58.282Z,22.27
2018-01-13T17:38:25.992Z,22.37
2018-01-13T17:40:53.615Z,23.37
2018-01-13T17:43:21.153Z,25.70
2018-01-13T17:45:48.681Z,22.33
2018-01-13T17:48:16.195Z,22.87
2018-01-13T17:50:43.779Z,27.33
2018-01-13T17:53:11.548Z,26.33
2018-01-13T17:55:39.474Z,22.57
2018-01-13T17:58:07.085Z,23.63
2018-01-13T18:00:35.006Z,22.73
2018-01-13T18:03:03.099Z,23.60
2018-01-13T18:05:30.626Z,24.67
2018-01-13T18:07:58.370Z,24.03
2018-01-13T18:10:25.987Z,21.90
2018-01-13T18:12:54.442Z,24.67
2018-01-13T18:15:22.121Z,25.10
2018-01-13T18:17:49.761Z,25.63
2018-01-13T18:20:17.312Z,25.17
2018-01-13T18:22:49.942Z,24.27
2018-01-13T18:25:17.471Z,21.43
2018-01-13T18:27:45.343Z,23.23
2018-01-13T18:30:12.951Z,21.60
2018-01-13T18:32:40.666Z,20.40
2018-01-13T18:35:08.418Z,22.70
2018-01-13T18:37:36.151Z,21.07
2018-01-13T18:40:05.177Z,20.00
2018-01-13T18:42:33.046Z,18.70
2018-01-13T18:45:00.665Z,17.20
2018-01-13T18:47:28.320Z,15.50
2018-01-13T18:49:55.916Z,14.43
2018-01-13T18:52:28.708Z,15.07
2018-01-13T18:54:57.149Z,11.57
2018-01-13T18:57:24.909Z,12.87
2018-01-13T18:59:52.576Z,13.67
2018-01-13T19:02:20.432Z,12.47
2018-01-13T19:04:48.075Z,13.23
2018-01-13T19:07:15.622Z,12.03
2018-01-13T19:09:43.211Z,13.97
2018-01-13T19:12:10.811Z,11.50
2018-01-13T19:14:38.375Z,10.73
2018-01-13T19:17:05.940Z,11.40
2018-01-13T19:19:33.582Z,10.03
2018-01-13T19:22:01.165Z,13.13
2018-01-13T19:24:28.952Z,12.00
2018-01-13T19:26:56.416Z,12.20
2018-01-13T19:29:23.899Z,11.10
2018-01-13T19:31:51.521Z,12.23
2018-01-13T19:34:19.039Z,12.63
2018-01-13T19:36:46.593Z,11.10
2018-01-13T19:39:14.139Z,11.47
2018-01-13T19:41:41.701Z,12.27
2018-01-13T19:44:10.218Z,12.93
2018-01-13T19:46:38.193Z,14.40
2018-01-13T19:49:05.764Z,12.17
2018-01-13T19:51:33.295Z,13.50
2018-01-13T19:54:00.824Z,12.10
2018-01-13T19:56:28.404Z,13.43
2018-01-13T19:58:55.927Z,14.57
2018-01-13T20:01:23.522Z,14.50
2018-01-13T20:03:51.434Z,13.83
2018-01-13T20:06:19.007Z,13.07
2018-01-13T20:08:46.485Z,12.60
2018-01-13T20:11:14.038Z,13.00
2018-01-13T20:13:41.601Z,11.87
2018-01-13T20:16:09.379Z,12.20
2018-01-13T20:18:36.920Z,15.00
2018-01-13T20:21:04.732Z,14.77
2018-01-13T20:23:32.270Z,15.70
2018-01-13T20:25:59.852Z,17.50
2018-01-13T20:28:27.502Z,17.23
2018-01-13T20:30:55.068Z,16.63
2018-01-13T20:33:22.540Z,17.13
2018-01-13T20:35:50.277Z,17.67
2018-01-13T20:38:18.017Z,19.17
2018-01-13T20:40:45.549Z,20.63
2018-01-13T20:43:13.527Z,17.80
2018-01-13T20:45:41.173Z,22.00
2018-01-13T20:48:08.808Z,20.47
2018-01-13T20:50:36.293Z,19.00
2018-01-13T20:53:03.819Z,23.63
2018-01-13T20:55:31.373Z,22.53
2018-01-13T20:57:58.939Z,18.33
2018-01-13T21:00:26.602Z,22.87
2018-01-13T21:02:54.075Z,22.57
2018-01-13T21:05:21.636Z,21.50
2018-01-13T21:07:49.157Z,21.40
2018-01-13T21:10:16.715Z,23.40
2018-01-13T21:12:44.304Z,21.50
2018-01-13T21:15:11.825Z,20.63
2018-01-13T21:17:39.423Z,20.77
2018-01-13T21:20:06.963Z,24.23
2018-01-13T21:22:34.544Z,20.77
2018-01-13T21:25:02.056Z,22.80
2018-01-13T21:27:29.690Z,22.03
2018-01-13T21:29:57.234Z,23.50
2018-01-13T21:32:24.833Z,22.67
2018-01-13T21:34:52.381Z,22.50
2018-01-13T21:37:19.871Z,25.20
2018-01-13T21:39:47.368Z,23.93
2018-01-13T21:42:14.858Z,24.10
2018-01-13T21:44:42.373Z,21.37
2018-01-13T21:47:09.987Z,22.80
2018-01-13T21:49:37.824Z,25.13
2018-01-13T21:52:05.601Z,20.60
2018-01-13T21:54:33.326Z,23.10
2018-01-13T21:57:00.920Z,22.73
2018-01-13T21:59:28.462Z,22.17
2018-01-13T22:01:56.043Z,20.77
2018-01-13T22:04:23.628Z,25.27
2018-01-13T22:06:51.152Z,24.77
2018-01-13T22:09:18.699Z,25.20
2018-01-13T22:11:46.353Z,24.20
2018-01-13T22:14:13.812Z,24.50
2018-01-13T22:16:41.498Z,22.47
2018-01-13T22:19:09.295Z,23.40
2018-01-13T22:21:36.885Z,23.27
2018-01-13T22:24:04.553Z,23.50
2018-01-13T22:26:32.812Z,23.93
2018-01-13T22:29:00.289Z,24.67
2018-01-13T22:31:27.818Z,21.90
2018-01-13T22:33:55.401Z,24.10
2018-01-13T22:36:22.910Z,23.13
2018-01-13T22:38:52.004Z,21.47
2018-01-13T22:41:19.515Z,22.50
2018-01-13T22:43:46.987Z,21.83
2018-01-13T22:46:15.477Z,21.40
2018-01-13T22:48:43.030Z,24.90
2018-01-13T22:51:10.591Z,20.73
2018-01-13T22:53:38.342Z,22.57
2018-01-13T22:56:05.966Z,23.47
2018-01-13T22:58:33.546Z,22.73
2018-01-13T23:01:01.132Z,20.83
2018-01-13T23:03:28.615Z,22.73
2018-01-13T23:05:56.182Z,22.73
2018-01-13T23:08:24.556Z,25.60
2018-01-13T23:10:52.258Z,21.63
2018-01-13T23:13:21.040Z,22.93
2018-01-13T23:15:48.502Z,23.83
2018-01-13T23:18:16.122Z,22.27
2018-01-13T23:20:43.576Z,21.57
2018-01-13T23:23:11.568Z,20.70
2018-01-13T23:25:39.096Z,19.50
2018-01-13T23:28:06.597Z,19.50
2018-01-13T23:30:34.211Z,21.53
2018-01-13T23:33:01.755Z,19.67
2018-01-13T23:35:29.300Z,22.23
2018-01-13T23:37:57.003Z,21.47
2018-01-13T23:40:24.851Z,21.03
2018-01-13T23:42:52.580Z,18.87
2018-01-13T23:45:20.125Z,20.23
2018-01-13T23:47:47.668Z,20.20
2018-01-13T23:50:15.164Z,19.63
2018-01-13T23:52:42.662Z,19.17
2018-01-13T23:55:10.296Z,18.73
2018-01-13T23:57:37.840Z,21.80
